Terminal Aerodrome Forecast
Issued by NWS Missoula, MT

Current Version | Previous Version | Text Only | Print | Product List | Glossary On
Versions: 1 2 3 4 5 6 7 8 9 10 11 12 13
236
FTUS45 KMSO 191720
TAFBTM
TAF
KBTM 191720Z 1918/2018 11003KT P6SM SKC
     FM191900 31009G15KT P6SM SKC
     FM200200 VRB04KT 6SM FU SKC=

USA.gov is the U.S. government's official web portal to all federal, state and local government web resources and services.